createdAt,value
2023-04-19T00:02:03.951Z,64.60
2023-04-19T00:05:11.312Z,64.60
2023-04-19T00:08:14.984Z,64.60
2023-04-19T00:11:20.976Z,64.60
2023-04-19T00:14:26.570Z,64.70
2023-04-19T00:17:32.336Z,64.80
2023-04-19T00:20:36.190Z,64.80
2023-04-19T00:23:41.934Z,64.80
2023-04-19T00:26:45.720Z,64.70
2023-04-19T00:29:53.411Z,64.80
2023-04-19T00:32:57.126Z,64.80
2023-04-19T00:36:03.872Z,64.80
2023-04-19T00:39:07.585Z,64.80
2023-04-19T00:42:13.345Z,64.90
2023-04-19T00:45:18.994Z,64.90
2023-04-19T00:48:25.063Z,64.90
2023-04-19T00:51:29.373Z,64.90
2023-04-19T00:54:35.196Z,65.00
2023-04-19T00:57:39.227Z,65.00
2023-04-19T01:00:47.182Z,65.00
2023-04-19T01:03:51.028Z,64.90
2023-04-19T01:06:59.716Z,64.90
2023-04-19T01:10:03.548Z,64.90
2023-04-19T01:13:09.351Z,65.00
2023-04-19T01:16:16.640Z,64.90
2023-04-19T01:19:22.861Z,65.00
2023-04-19T01:22:29.592Z,65.00
2023-04-19T01:25:35.317Z,65.00
2023-04-19T01:28:39.074Z,65.00
2023-04-19T01:31:48.743Z,65.00
2023-04-19T01:34:52.480Z,65.00
2023-04-19T01:38:00.598Z,65.10
2023-04-19T01:41:04.362Z,65.10
2023-04-19T01:44:10.516Z,65.10
2023-04-19T01:47:14.348Z,65.20
2023-04-19T01:50:20.162Z,65.20
2023-04-19T01:53:25.790Z,65.20
2023-04-19T01:56:32.526Z,65.20
2023-04-19T01:59:36.240Z,65.30
2023-04-19T02:02:42.476Z,65.30
2023-04-19T02:05:46.490Z,65.30
2023-04-19T02:08:54.121Z,65.30
2023-04-19T02:11:57.813Z,65.30
2023-04-19T02:15:03.702Z,65.40
2023-04-19T02:18:08.557Z,65.40
2023-04-19T02:21:14.369Z,65.30
2023-04-19T02:24:20.025Z,65.30
2023-04-19T02:27:26.008Z,65.30
2023-04-19T02:30:31.380Z,65.40
2023-04-19T02:33:37.271Z,65.30
2023-04-19T02:36:40.981Z,65.30
2023-04-19T02:39:48.649Z,65.30
2023-04-19T02:42:52.346Z,65.30
2023-04-19T02:46:00.482Z,65.30
2023-04-19T02:49:04.356Z,65.30
2023-04-19T02:52:10.449Z,65.30
2023-04-19T02:55:19.075Z,65.30
2023-04-19T02:58:27.404Z,65.30
2023-04-19T03:01:36.899Z,65.30
2023-04-19T03:04:44.965Z,65.30
2023-04-19T03:07:48.633Z,65.40
2023-04-19T03:10:56.418Z,65.40
2023-04-19T03:14:00.239Z,65.40
2023-04-19T03:17:05.934Z,65.50
2023-04-19T03:20:11.341Z,65.50
2023-04-19T03:23:17.294Z,65.50
2023-04-19T03:26:24.427Z,65.50
2023-04-19T03:29:32.351Z,65.40
2023-04-19T03:32:40.140Z,65.40
2023-04-19T03:35:47.043Z,65.40
2023-04-19T03:38:50.774Z,65.40
2023-04-19T03:42:00.890Z,65.30
2023-04-19T03:45:23.056Z,65.30
2023-04-19T03:48:28.925Z,65.30
2023-04-19T03:51:33.315Z,65.20
2023-04-19T03:54:39.532Z,65.20
2023-04-19T03:57:49.870Z,65.20
2023-04-19T04:01:02.276Z,65.80
2023-04-19T04:04:07.077Z,65.10
2023-04-19T04:07:13.088Z,65.10
2023-04-19T04:10:16.777Z,65.10
2023-04-19T04:13:24.736Z,65.00
2023-04-19T04:16:41.110Z,65.00
2023-04-19T04:19:47.354Z,65.10
2023-04-19T04:22:52.045Z,65.10
2023-04-19T04:26:00.842Z,65.10
2023-04-19T04:29:16.076Z,65.10
2023-04-19T04:32:22.586Z,65.00
2023-04-19T04:35:30.161Z,65.00
2023-04-19T04:38:46.667Z,65.10
2023-04-19T04:41:51.418Z,66.80
2023-04-19T04:45:01.003Z,75.10
2023-04-19T04:48:08.676Z,79.00
2023-04-19T04:51:14.359Z,71.80
2023-04-19T04:54:20.722Z,71.80
2023-04-19T04:57:27.312Z,69.10
2023-04-19T05:00:33.226Z,69.60
2023-04-19T05:03:42.862Z,67.20
2023-04-19T05:06:51.677Z,69.20
2023-04-19T05:10:02.731Z,70.70
2023-04-19T05:13:16.172Z,71.20
2023-04-19T05:16:24.602Z,70.50
2023-04-19T05:19:29.664Z,69.40
2023-04-19T05:22:40.950Z,70.90
2023-04-19T05:25:47.197Z,70.20
2023-04-19T05:28:53.053Z,69.00
2023-04-19T05:32:15.622Z,69.30
2023-04-19T05:35:26.731Z,70.00
2023-04-19T05:38:30.523Z,69.30
2023-04-19T05:41:40.613Z,70.30
2023-04-19T05:44:44.299Z,70.90
2023-04-19T05:47:52.859Z,68.80
2023-04-19T05:51:35.103Z,69.00
2023-04-19T05:54:59.768Z,69.30
2023-04-19T05:58:04.235Z,65.80
2023-04-19T06:01:10.321Z,65.80
2023-04-19T06:04:16.664Z,67.70
2023-04-19T06:10:49.036Z,64.00
2023-04-19T06:14:00.111Z,64.50
2023-04-19T06:17:04.340Z,64.50
2023-04-19T06:20:12.578Z,64.50
2023-04-19T06:23:17.835Z,64.40
2023-04-19T06:26:23.646Z,64.40
2023-04-19T06:29:27.330Z,64.50
2023-04-19T06:32:33.074Z,64.40
2023-04-19T06:35:38.935Z,64.30
2023-04-19T06:38:45.832Z,64.30
2023-04-19T06:41:49.658Z,64.30
2023-04-19T06:44:56.671Z,64.30
2023-04-19T06:48:00.506Z,64.30
2023-04-19T06:51:08.349Z,64.20
2023-04-19T06:54:11.989Z,64.20
2023-04-19T06:57:17.780Z,64.00
2023-04-19T07:00:21.549Z,64.00
2023-04-19T07:03:27.430Z,64.10
2023-04-19T07:06:33.154Z,63.90
2023-04-19T07:09:38.856Z,64.00
2023-04-19T07:12:42.533Z,63.90
2023-04-19T07:15:48.334Z,63.90
2023-04-19T07:18:52.028Z,63.80
2023-04-19T07:22:00.490Z,63.90
2023-04-19T07:25:04.216Z,63.80
2023-04-19T07:28:10.171Z,63.80
2023-04-19T07:31:16.602Z,63.80
2023-04-19T07:34:22.332Z,63.60
2023-04-19T07:37:27.962Z,63.70
2023-04-19T07:40:33.676Z,63.60
2023-04-19T07:43:39.181Z,63.60
2023-04-19T07:46:45.931Z,63.60
2023-04-19T07:49:52.981Z,63.50
2023-04-19T07:53:00.604Z,63.50
2023-04-19T07:56:04.433Z,63.50
2023-04-19T07:59:10.130Z,63.40
2023-04-19T08:02:15.880Z,63.30
2023-04-19T08:05:21.976Z,63.30
2023-04-19T08:08:28.894Z,63.30
2023-04-19T08:11:34.587Z,63.20
2023-04-19T08:17:46.921Z,63.10
2023-04-19T08:20:50.719Z,63.10
2023-04-19T08:23:58.515Z,63.00
2023-04-19T08:27:02.194Z,63.00
2023-04-19T08:30:10.360Z,62.90
2023-04-19T08:33:14.106Z,62.90
2023-04-19T08:36:25.532Z,62.80
2023-04-19T08:39:38.626Z,62.80
2023-04-19T08:42:44.457Z,62.70
2023-04-19T08:45:48.298Z,62.60
2023-04-19T08:48:54.644Z,62.50
2023-04-19T08:51:59.427Z,62.40
2023-04-19T08:55:08.039Z,62.40
2023-04-19T08:58:19.004Z,62.30
2023-04-19T09:01:36.039Z,62.20
2023-04-19T09:04:41.431Z,62.20
2023-04-19T09:07:47.663Z,62.10
2023-04-19T09:10:56.733Z,62.00
2023-04-19T09:14:09.022Z,61.90
2023-04-19T09:17:13.162Z,61.90
2023-04-19T09:20:18.929Z,61.90
2023-04-19T09:23:22.609Z,61.70
2023-04-19T09:26:30.958Z,61.60
2023-04-19T09:29:34.744Z,61.50
2023-04-19T09:32:47.856Z,61.40
2023-04-19T09:35:51.754Z,61.30
2023-04-19T09:38:57.996Z,61.30
2023-04-19T09:42:03.693Z,61.20
2023-04-19T09:48:16.825Z,61.20
2023-04-19T09:51:23.182Z,61.10
2023-04-19T09:54:28.240Z,61.00
2023-04-19T09:57:36.178Z,61.00
2023-04-19T10:00:47.827Z,61.00
2023-04-19T10:03:55.886Z,60.90
2023-04-19T10:07:25.176Z,60.80
2023-04-19T10:10:36.324Z,60.60
2023-04-19T10:13:48.416Z,60.60
2023-04-19T10:16:54.100Z,60.50
2023-04-19T10:20:01.152Z,60.50
2023-04-19T10:23:08.451Z,60.40
2023-04-19T10:26:12.179Z,60.20
2023-04-19T10:29:39.773Z,60.10
2023-04-19T10:32:44.050Z,60.10
2023-04-19T10:35:49.934Z,60.00
2023-04-19T10:38:54.999Z,60.00
2023-04-19T10:42:01.659Z,60.00
2023-04-19T10:45:20.221Z,60.00
2023-04-19T10:48:38.256Z,60.00
2023-04-19T10:51:43.831Z,59.90
2023-04-19T10:54:57.047Z,59.80
2023-04-19T10:58:05.241Z,59.70
2023-04-19T11:01:26.044Z,59.60
2023-04-19T11:04:44.876Z,59.50
2023-04-19T11:07:52.503Z,59.40
2023-04-19T11:10:58.437Z,59.30
2023-04-19T11:14:04.897Z,59.30
2023-04-19T11:17:16.283Z,59.30
2023-04-19T11:20:25.519Z,59.20
2023-04-19T11:23:31.077Z,59.10
2023-04-19T11:26:36.854Z,59.10
2023-04-19T11:29:42.721Z,59.10
2023-04-19T11:32:48.960Z,59.00
2023-04-19T11:35:52.788Z,58.90
2023-04-19T11:39:00.447Z,58.80
2023-04-19T11:42:04.180Z,59.20
2023-04-19T11:45:26.067Z,58.70
2023-04-19T11:48:35.502Z,58.60
2023-04-19T11:51:43.581Z,58.50
2023-04-19T11:54:49.269Z,58.40
2023-04-19T11:57:54.974Z,58.40
2023-04-19T12:01:00.316Z,58.40
2023-04-19T12:04:06.347Z,58.30
2023-04-19T12:07:11.914Z,58.20
2023-04-19T12:10:19.595Z,58.20
2023-04-19T12:13:23.274Z,58.10
2023-04-19T12:16:29.353Z,58.10
2023-04-19T12:19:36.167Z,57.90
2023-04-19T12:22:41.827Z,58.00
2023-04-19T12:25:48.142Z,57.90
2023-04-19T12:28:53.969Z,58.00
2023-04-19T12:31:57.745Z,57.80
2023-04-19T12:35:03.450Z,57.80
2023-04-19T12:38:08.278Z,57.70
2023-04-19T12:41:15.945Z,57.70
2023-04-19T12:44:19.625Z,57.60
2023-04-19T12:47:25.349Z,57.60
2023-04-19T12:50:29.132Z,57.50
2023-04-19T12:53:34.920Z,57.50
2023-04-19T12:56:40.544Z,57.40
2023-04-19T12:59:46.264Z,57.40
2023-04-19T13:02:50.098Z,57.30
2023-04-19T13:05:55.833Z,57.30
2023-04-19T13:09:01.027Z,57.40
2023-04-19T13:12:09.259Z,57.30
2023-04-19T13:15:13.273Z,57.30
2023-04-19T13:18:19.013Z,57.30
2023-04-19T13:21:23.391Z,57.20
2023-04-19T13:24:29.108Z,57.10
2023-04-19T13:27:34.759Z,57.10
2023-04-19T13:30:40.559Z,57.10
2023-04-19T13:33:44.235Z,57.10
2023-04-19T13:36:49.978Z,57.10
2023-04-19T13:39:55.203Z,57.00
2023-04-19T13:43:08.938Z,56.90
2023-04-19T13:46:12.745Z,56.90
2023-04-19T13:49:18.596Z,56.90
2023-04-19T13:52:22.950Z,56.90
2023-04-19T13:55:28.649Z,56.90
2023-04-19T13:58:34.267Z,56.80
2023-04-19T14:01:39.962Z,56.70
2023-04-19T14:04:43.921Z,56.70
2023-04-19T14:07:49.823Z,56.70
2023-04-19T14:10:53.515Z,56.70
2023-04-19T14:14:01.466Z,56.70
2023-04-19T14:17:05.155Z,56.70
2023-04-19T14:20:11.169Z,56.60
2023-04-19T14:23:14.930Z,56.50
2023-04-19T14:26:20.665Z,56.60
2023-04-19T14:29:26.595Z,56.60
2023-04-19T14:32:32.486Z,56.50
2023-04-19T14:35:36.521Z,56.50
2023-04-19T14:38:42.197Z,56.50
2023-04-19T14:41:45.880Z,56.40
2023-04-19T14:44:54.232Z,56.40
2023-04-19T14:47:58.029Z,56.40
2023-04-19T14:51:03.768Z,56.40
2023-04-19T14:54:07.585Z,56.40
2023-04-19T14:57:13.540Z,56.30
2023-04-19T15:00:19.660Z,56.30
2023-04-19T15:03:25.498Z,56.20
2023-04-19T15:06:29.389Z,56.50
2023-04-19T15:09:35.110Z,56.20
2023-04-19T15:12:38.820Z,56.10
2023-04-19T15:15:46.501Z,56.10
2023-04-19T15:18:50.249Z,56.10
2023-04-19T15:21:55.952Z,56.10
2023-04-19T15:24:59.655Z,56.00
2023-04-19T15:28:05.614Z,56.00
2023-04-19T15:31:11.781Z,56.00
2023-04-19T15:34:17.547Z,56.10
2023-04-19T15:37:21.348Z,56.10
2023-04-19T15:40:27.838Z,56.10
2023-04-19T15:43:31.548Z,56.10
2023-04-19T15:46:39.429Z,56.10
2023-04-19T15:49:43.151Z,56.00
2023-04-19T15:52:48.883Z,56.00
2023-04-19T15:55:55.975Z,55.90
2023-04-19T15:59:01.922Z,55.90
2023-04-19T16:02:08.340Z,55.90
2023-04-19T16:05:14.090Z,55.80
2023-04-19T16:08:19.103Z,55.90
2023-04-19T16:11:24.992Z,55.80
2023-04-19T16:14:28.713Z,55.80
2023-04-19T16:17:36.404Z,56.00
2023-04-19T16:20:41.287Z,55.70
2023-04-19T16:23:47.024Z,55.70
2023-04-19T16:26:50.698Z,55.70
2023-04-19T16:29:56.480Z,55.70
2023-04-19T16:33:02.232Z,55.70
2023-04-19T16:36:07.944Z,55.50
2023-04-19T16:39:11.677Z,55.60
2023-04-19T16:42:17.473Z,55.60
2023-04-19T16:45:21.358Z,56.20
2023-04-19T16:48:29.025Z,55.50
2023-04-19T16:51:32.748Z,55.40
2023-04-19T16:54:38.431Z,55.40
2023-04-19T16:57:42.196Z,55.40
2023-04-19T17:00:47.885Z,55.40
2023-04-19T17:03:53.795Z,55.90
2023-04-19T17:06:59.587Z,55.30
2023-04-19T17:10:03.338Z,55.30
2023-04-19T17:13:09.069Z,55.30
2023-04-19T17:16:12.916Z,55.20
2023-04-19T17:19:20.762Z,55.20
2023-04-19T17:22:24.524Z,55.10
2023-04-19T17:25:30.439Z,55.10
2023-04-19T17:28:34.244Z,55.10
2023-04-19T17:31:40.028Z,55.10
2023-04-19T17:34:45.771Z,55.00
2023-04-19T17:37:51.472Z,55.00
2023-04-19T17:40:55.211Z,55.00
2023-04-19T17:44:00.997Z,55.00
2023-04-19T17:47:04.779Z,55.00
2023-04-19T17:50:13.548Z,55.00
2023-04-19T17:53:18.399Z,54.90
2023-04-19T17:56:24.393Z,54.80
2023-04-19T17:59:28.412Z,54.80
2023-04-19T18:02:34.240Z,54.80
2023-04-19T18:05:41.374Z,54.80
2023-04-19T18:08:47.050Z,54.70
2023-04-19T18:11:50.735Z,54.70
2023-04-19T18:14:56.380Z,54.70
2023-04-19T18:18:00.146Z,54.70
2023-04-19T18:21:08.905Z,54.70
2023-04-19T18:24:12.548Z,54.60
2023-04-19T18:27:18.566Z,54.60
2023-04-19T18:30:22.306Z,54.60
2023-04-19T18:33:27.989Z,54.60
2023-04-19T18:36:33.614Z,54.60
2023-04-19T18:39:39.315Z,54.60
2023-04-19T18:42:42.984Z,54.50
2023-04-19T18:45:54.535Z,54.60
2023-04-19T18:48:58.278Z,54.50
2023-04-19T18:52:06.166Z,54.50
2023-04-19T18:55:11.503Z,54.50
2023-04-19T18:58:18.179Z,54.40
2023-04-19T19:01:21.903Z,54.50
2023-04-19T19:04:48.009Z,54.40
2023-04-19T19:07:53.678Z,54.40
2023-04-19T19:14:06.289Z,54.30
2023-04-19T19:17:12.256Z,54.40
2023-04-19T19:20:16.001Z,54.40
2023-04-19T19:23:35.309Z,54.40
2023-04-19T19:26:41.484Z,54.30
2023-04-19T19:29:47.221Z,54.30
2023-04-19T19:32:50.974Z,54.30
2023-04-19T19:35:56.665Z,54.20
2023-04-19T19:39:03.000Z,54.30
2023-04-19T19:42:13.847Z,54.20
2023-04-19T19:45:19.473Z,54.20
2023-04-19T19:48:25.776Z,54.20
2023-04-19T19:51:53.163Z,54.20
2023-04-19T19:54:57.734Z,54.20
2023-04-19T19:58:32.673Z,54.10
2023-04-19T20:01:27.602Z,54.10
2023-04-19T20:04:31.522Z,54.10
2023-04-19T20:08:00.459Z,54.00
2023-04-19T20:11:04.786Z,54.00
2023-04-19T20:14:10.486Z,54.00
2023-04-19T20:17:14.145Z,54.00
2023-04-19T20:20:20.368Z,54.00
2023-04-19T20:23:24.201Z,54.00
2023-04-19T20:26:31.798Z,53.90
2023-04-19T20:29:35.560Z,53.90
2023-04-19T20:32:42.067Z,53.90
2023-04-19T20:35:45.768Z,53.80
2023-04-19T20:38:51.526Z,53.80
2023-04-19T20:41:57.355Z,53.80
2023-04-19T20:45:03.282Z,53.80
2023-04-19T20:48:08.032Z,53.80
2023-04-19T20:51:14.743Z,53.80
2023-04-19T20:54:18.504Z,53.70
2023-04-19T20:57:26.154Z,53.70
2023-04-19T21:00:29.872Z,53.80
2023-04-19T21:03:35.630Z,53.80
2023-04-19T21:06:39.655Z,53.70
2023-04-19T21:09:45.504Z,53.80
2023-04-19T21:12:51.146Z,53.80
2023-04-19T21:15:57.282Z,53.70
2023-04-19T21:19:01.115Z,53.70
2023-04-19T21:22:06.840Z,53.70
2023-04-19T21:25:11.766Z,53.60
2023-04-19T21:28:19.848Z,53.60
2023-04-19T21:31:23.592Z,53.60
2023-04-19T21:34:29.349Z,53.70
2023-04-19T21:37:33.304Z,53.60
2023-04-19T21:40:39.015Z,53.60
2023-04-19T21:43:44.702Z,53.60
2023-04-19T21:46:50.427Z,53.60
2023-04-19T21:49:54.152Z,53.50
2023-04-19T21:52:59.910Z,53.60
2023-04-19T21:56:03.587Z,53.50
2023-04-19T21:59:11.252Z,53.50
2023-04-19T22:02:15.051Z,53.60
2023-04-19T22:05:20.837Z,53.50
2023-04-19T22:08:24.554Z,53.50
2023-04-19T22:11:30.885Z,53.50
2023-04-19T22:14:38.556Z,53.50
2023-04-19T22:17:43.851Z,54.00
2023-04-19T22:20:50.323Z,53.40
2023-04-19T22:23:54.304Z,53.40
2023-04-19T22:27:01.309Z,53.40
2023-04-19T22:30:07.892Z,53.40
2023-04-19T22:33:13.627Z,53.40
2023-04-19T22:36:17.548Z,53.40
2023-04-19T22:39:23.581Z,53.40
2023-04-19T22:42:27.325Z,53.40
2023-04-19T22:45:35.091Z,53.40
2023-04-19T22:48:38.829Z,53.40
2023-04-19T22:51:44.650Z,53.40
2023-04-19T22:54:48.399Z,53.40
2023-04-19T22:57:54.066Z,54.00
2023-04-19T23:00:59.723Z,53.40
2023-04-19T23:04:05.499Z,53.40
2023-04-19T23:07:09.206Z,53.40
2023-04-19T23:10:14.863Z,53.40
2023-04-19T23:13:18.614Z,53.40
2023-04-19T23:16:28.291Z,53.50
2023-04-19T23:19:32.008Z,53.40
2023-04-19T23:22:37.720Z,53.50
2023-04-19T23:25:41.437Z,53.50
2023-04-19T23:28:47.225Z,53.50
2023-04-19T23:31:52.926Z,53.40
2023-04-19T23:34:58.942Z,53.50
2023-04-19T23:38:02.661Z,53.50
2023-04-19T23:41:11.129Z,53.50
2023-04-19T23:44:15.128Z,53.50
2023-04-19T23:47:22.895Z,53.50
2023-04-19T23:50:26.801Z,53.60
2023-04-19T23:53:32.464Z,53.60
2023-04-19T23:56:36.151Z,53.60
2023-04-19T23:59:41.951Z,53.60
